Página principal
METAR-TAF:

METAR-TAF

Aeroportos :

Aeroporto Internacional Mercedita

Ponce, Porto Rico, Estados Unidos

latitude: 18-01N, longitude: 066-34W, altura: 8 m

METAR: em falta

Hora: 10:08 (14:08 UTC)

Previsão

O boletim foi feito há 2 horas e 43 minutos, às 11:25 UTC
Previsão válida de 19 às 12 UTC a 20 às 12 UTC
Vento 5 kt de es-nordeste
Visibilidade: 10 km
Céu limpo
A partir de 19 às 1400 UTC
Vento 10 kt de su-sudeste
Visibilidade: 10 km
Poucas nuvensa uma altura de 3000 ft
A partir de 19 às 2100 UTC
Vento 6 kt de este
Visibilidade: 10 km
Nuvens dispersasa uma altura de 2500 ft

TAF: TJPS 191125Z 1912/2012 06005KT P6SM SKC FM191400 15010KT P6SM FEW030 FM192100 10006KT P6SM SCT025

Observações e previsões do tempo de mais de 4000 aeroportos (mensagens METAR e TAF).

As estações disponíveis são os pontos amarelos e vermelhos sobre o mapa.

Mova o rato sobre o mapa para ver o nome da estação.

Depois clique no ponto para visualizar as observações e previsões meteorológicas.

Para alterar o mapa : clique nos botões verdes com uma cruz preta para aumentar o zoom; no botão verde com uma pitada de zoom; ou nas setas verdes para mapas adjacentes.


METAR-TAF: